createdAt,value
2023-03-24T00:01:04.871Z,71.47
2023-03-24T00:04:07.475Z,72.33
2023-03-24T00:07:15.268Z,72.57
2023-03-24T00:10:20.546Z,72.48
2023-03-24T00:13:22.607Z,72.58
2023-03-24T00:16:25.014Z,72.71
2023-03-24T00:19:27.536Z,72.70
2023-03-24T00:22:30.219Z,72.52
2023-03-24T00:25:40.413Z,72.66
2023-03-24T00:28:45.636Z,72.29
2023-03-24T00:31:47.698Z,71.25
2023-03-24T00:34:49.761Z,70.54
2023-03-24T00:37:52.317Z,70.00
2023-03-24T00:40:54.770Z,70.23
2023-03-24T00:43:59.196Z,70.06
2023-03-24T00:47:02.238Z,70.30
2023-03-24T00:50:07.780Z,69.70
2023-03-24T00:53:10.329Z,69.48
2023-03-24T00:56:12.469Z,70.83
2023-03-24T00:59:14.488Z,71.51
2023-03-24T01:02:22.451Z,72.01
2023-03-24T01:05:28.641Z,71.91
2023-03-24T01:08:31.274Z,72.15
2023-03-24T01:11:38.841Z,72.38
2023-03-24T01:14:41.351Z,71.30
2023-03-24T01:17:43.502Z,71.03
2023-03-24T01:20:49.220Z,69.90
2023-03-24T01:23:51.270Z,69.11
2023-03-24T01:26:53.296Z,68.38
2023-03-24T01:29:59.876Z,69.27
2023-03-24T01:33:02.038Z,70.62
2023-03-24T01:36:06.302Z,71.09
2023-03-24T01:39:08.972Z,71.07
2023-03-24T01:42:24.965Z,72.42
2023-03-24T01:45:42.359Z,70.54
2023-03-24T01:48:52.200Z,71.69
2023-03-24T01:51:59.410Z,71.16
2023-03-24T01:55:18.677Z,69.99
2023-03-24T01:58:21.406Z,69.86
2023-03-24T02:01:26.579Z,69.42
2023-03-24T02:04:38.880Z,69.41
2023-03-24T02:07:52.535Z,69.16
2023-03-24T02:10:56.171Z,68.71
2023-03-24T02:13:58.374Z,68.46
2023-03-24T02:17:33.639Z,68.38
2023-03-24T02:21:00.451Z,68.22
2023-03-24T02:24:16.116Z,67.97
2023-03-24T02:27:27.252Z,67.74
2023-03-24T02:30:47.923Z,67.66
2023-03-24T02:34:04.744Z,67.64
2023-03-24T02:37:28.568Z,67.72
2023-03-24T02:40:33.420Z,67.82
2023-03-24T02:44:06.723Z,67.85
2023-03-24T02:47:31.227Z,68.01
2023-03-24T02:50:46.466Z,68.55
2023-03-24T02:54:14.323Z,69.08
2023-03-24T02:57:19.368Z,69.23
2023-03-24T03:00:36.637Z,69.36
2023-03-24T03:03:44.772Z,69.50
2023-03-24T03:06:53.011Z,69.87
2023-03-24T03:10:08.811Z,70.01
2023-03-24T03:13:39.207Z,69.93
2023-03-24T03:16:47.793Z,70.18
2023-03-24T03:19:56.218Z,70.16
2023-03-24T03:23:06.331Z,70.21
2023-03-24T03:26:16.569Z,70.48
2023-03-24T03:29:23.197Z,70.75
2023-03-24T03:32:30.051Z,70.96
2023-03-24T03:35:40.151Z,70.93
2023-03-24T03:38:49.753Z,70.85
2023-03-24T03:41:52.387Z,70.80
2023-03-24T03:44:55.519Z,71.29
2023-03-24T03:47:57.628Z,71.63
2023-03-24T03:51:10.736Z,71.75
2023-03-24T03:54:17.024Z,71.65
2023-03-24T03:57:20.528Z,71.42
2023-03-24T04:00:24.829Z,71.19
2023-03-24T04:03:53.761Z,70.86
2023-03-24T04:07:17.966Z,70.98
2023-03-24T04:10:38.580Z,70.71
2023-03-24T04:14:08.432Z,70.74
2023-03-24T04:17:19.200Z,70.37
2023-03-24T04:20:49.003Z,70.28
2023-03-24T04:24:02.384Z,70.14
2023-03-24T04:27:27.373Z,70.08
2023-03-24T04:30:52.177Z,69.83
2023-03-24T04:34:32.776Z,69.56
2023-03-24T04:37:40.226Z,69.29
2023-03-24T04:40:44.505Z,69.03
2023-03-24T04:43:48.263Z,68.74
2023-03-24T04:46:52.132Z,68.58
2023-03-24T04:50:07.861Z,68.58
2023-03-24T04:53:10.836Z,68.25
2023-03-24T04:56:16.538Z,68.09
2023-03-24T04:59:19.722Z,67.88
2023-03-24T05:02:21.991Z,67.76
2023-03-24T05:05:24.142Z,67.69
2023-03-24T05:08:26.265Z,67.65
2023-03-24T05:11:28.691Z,67.51
2023-03-24T05:14:30.900Z,67.50
2023-03-24T05:17:33.055Z,67.29
2023-03-24T05:20:35.368Z,67.07
2023-03-24T05:23:37.504Z,66.70
2023-03-24T05:26:39.599Z,66.75
2023-03-24T05:29:41.643Z,66.65
2023-03-24T05:32:45.473Z,66.50
2023-03-24T05:35:49.284Z,66.26
2023-03-24T05:38:51.436Z,66.03
2023-03-24T05:41:53.472Z,65.41
2023-03-24T05:44:55.599Z,65.05
2023-03-24T05:47:57.687Z,64.97
2023-03-24T05:50:59.753Z,65.02
2023-03-24T05:54:02.188Z,64.98
2023-03-24T05:57:04.379Z,64.76
2023-03-24T06:00:16.416Z,64.41
2023-03-24T06:03:18.748Z,63.89
2023-03-24T06:06:20.917Z,63.46
2023-03-24T06:09:22.904Z,62.99
2023-03-24T06:12:25.047Z,61.99
2023-03-24T06:15:28.166Z,60.85
2023-03-24T06:18:30.765Z,58.87
2023-03-24T06:21:35.123Z,57.74
2023-03-24T06:24:37.788Z,57.01
2023-03-24T06:27:46.161Z,56.16
2023-03-24T06:30:49.205Z,54.71
2023-03-24T06:33:52.405Z,54.52
2023-03-24T06:36:54.452Z,53.64
2023-03-24T06:39:56.523Z,53.47
2023-03-24T06:42:58.715Z,52.83
2023-03-24T06:46:01.441Z,51.97
2023-03-24T06:49:04.770Z,51.50
2023-03-24T06:52:06.824Z,51.09
2023-03-24T06:55:09.448Z,50.47
2023-03-24T06:58:11.535Z,49.30
2023-03-24T07:01:14.940Z,48.77
2023-03-24T07:04:17.092Z,48.01
2023-03-24T07:07:56.916Z,47.91
2023-03-24T07:10:41.878Z,47.74
2023-03-24T07:13:43.920Z,46.28
2023-03-24T07:16:46.340Z,45.87
2023-03-24T07:19:48.564Z,45.53
2023-03-24T07:22:50.950Z,45.17
2023-03-24T07:25:53.792Z,44.49
2023-03-24T07:28:56.125Z,44.17
2023-03-24T07:31:58.991Z,43.77
2023-03-24T07:35:02.713Z,43.49
2023-03-24T07:38:05.357Z,43.84
2023-03-24T07:41:07.394Z,43.90
2023-03-24T07:44:10.382Z,43.79
2023-03-24T07:47:12.517Z,43.35
2023-03-24T07:50:14.966Z,43.29
2023-03-24T07:53:20.133Z,43.44
2023-03-24T07:56:22.489Z,43.34
2023-03-24T07:59:26.632Z,43.58
2023-03-24T08:02:29.732Z,43.16
2023-03-24T08:05:31.980Z,41.53
2023-03-24T08:08:35.088Z,40.73
2023-03-24T08:11:37.508Z,40.07
2023-03-24T08:14:39.846Z,38.82
2023-03-24T08:17:42.160Z,38.60
2023-03-24T08:20:44.347Z,38.59
2023-03-24T08:23:46.397Z,38.71
2023-03-24T08:26:48.672Z,38.22
2023-03-24T08:29:51.406Z,38.25
2023-03-24T08:33:01.942Z,37.60
2023-03-24T08:36:04.405Z,37.36
2023-03-24T08:39:10.406Z,37.57
2023-03-24T08:42:12.744Z,37.69
2023-03-24T08:45:16.046Z,37.74
2023-03-24T08:48:18.200Z,37.47
2023-03-24T08:51:20.607Z,36.06
2023-03-24T08:54:24.126Z,35.59
2023-03-24T08:57:26.229Z,35.08
2023-03-24T09:00:29.291Z,35.21
2023-03-24T09:03:32.106Z,34.52
2023-03-24T09:06:34.406Z,34.12
2023-03-24T09:09:36.559Z,34.35
2023-03-24T09:12:39.426Z,33.48
2023-03-24T09:15:50.444Z,32.85
2023-03-24T09:18:52.791Z,32.49
2023-03-24T09:21:55.071Z,32.26
2023-03-24T09:24:57.393Z,32.18
2023-03-24T09:27:59.504Z,31.39
2023-03-24T09:31:04.037Z,31.85
2023-03-24T09:34:06.677Z,31.59
2023-03-24T09:37:08.967Z,33.28
2023-03-24T09:40:43.779Z,34.97
2023-03-24T09:44:04.503Z,35.52
2023-03-24T09:47:25.129Z,33.33
2023-03-24T09:50:37.122Z,32.29
2023-03-24T09:54:08.987Z,31.24
2023-03-24T09:57:27.985Z,32.11
2023-03-24T10:00:33.687Z,31.11
2023-03-24T10:03:36.009Z,30.42
2023-03-24T10:06:44.373Z,29.46
2023-03-24T10:09:51.907Z,29.41
2023-03-24T10:13:01.192Z,28.26
2023-03-24T10:16:07.473Z,28.69
2023-03-24T10:19:51.244Z,28.62
2023-03-24T10:23:06.195Z,28.69
2023-03-24T10:26:17.083Z,28.83
2023-03-24T10:29:27.305Z,28.42
2023-03-24T10:32:33.819Z,28.63
2023-03-24T10:35:41.716Z,28.57
2023-03-24T10:38:44.411Z,28.03
2023-03-24T10:41:46.843Z,27.98
2023-03-24T10:44:51.266Z,29.51
2023-03-24T10:47:57.306Z,29.22
2023-03-24T10:50:59.909Z,28.36
2023-03-24T10:54:12.988Z,28.38
2023-03-24T10:57:18.750Z,28.35
2023-03-24T11:00:29.819Z,28.76
2023-03-24T11:03:35.065Z,28.38
2023-03-24T11:06:37.187Z,28.90
2023-03-24T11:09:48.700Z,29.57
2023-03-24T11:12:53.750Z,30.81
2023-03-24T11:16:05.278Z,30.80
2023-03-24T11:19:21.022Z,30.81
2023-03-24T11:22:26.244Z,30.68
2023-03-24T11:25:33.955Z,30.14
2023-03-24T11:29:15.481Z,28.39
2023-03-24T11:32:36.257Z,26.67
2023-03-24T11:38:44.198Z,27.61
2023-03-24T11:42:03.807Z,28.90
2023-03-24T11:45:21.601Z,29.61
2023-03-24T11:48:35.881Z,28.39
2023-03-24T11:51:41.320Z,28.45
2023-03-24T11:54:44.172Z,29.05
2023-03-24T11:57:56.970Z,28.17
2023-03-24T12:01:07.636Z,28.26
2023-03-24T12:04:25.145Z,28.25
2023-03-24T12:07:55.210Z,27.87
2023-03-24T12:11:58.011Z,27.39
2023-03-24T12:15:27.943Z,27.34
2023-03-24T12:18:42.075Z,27.48
2023-03-24T12:21:54.664Z,27.24
2023-03-24T12:25:17.004Z,27.24
2023-03-24T12:28:53.975Z,27.58
2023-03-24T12:32:04.937Z,29.45
2023-03-24T12:35:39.628Z,30.57
2023-03-24T12:38:47.985Z,30.66
2023-03-24T12:42:03.027Z,31.29
2023-03-24T12:45:26.649Z,30.75
2023-03-24T12:48:43.727Z,29.28
2023-03-24T12:52:04.249Z,30.29
2023-03-24T12:55:14.700Z,30.21
2023-03-24T12:58:26.326Z,29.77
2023-03-24T13:01:46.950Z,30.04
2023-03-24T13:04:51.639Z,29.68
2023-03-24T13:07:58.616Z,29.12
2023-03-24T13:11:13.189Z,28.34
2023-03-24T13:14:25.549Z,28.43
2023-03-24T13:17:39.325Z,28.03
2023-03-24T13:21:01.179Z,28.47
2023-03-24T13:24:10.176Z,28.58
2023-03-24T13:27:21.210Z,29.32
2023-03-24T13:30:35.744Z,29.40
2023-03-24T13:33:41.010Z,28.85
2023-03-24T13:36:49.102Z,28.12
2023-03-24T13:39:57.881Z,27.71
2023-03-24T13:43:07.834Z,27.56
2023-03-24T13:46:13.864Z,27.29
2023-03-24T13:49:16.694Z,27.15
2023-03-24T13:52:29.028Z,28.84
2023-03-24T13:55:39.595Z,30.17
2023-03-24T13:59:08.337Z,30.85
2023-03-24T14:02:24.381Z,31.93
2023-03-24T14:06:00.155Z,32.26
2023-03-24T14:09:06.379Z,32.48
2023-03-24T14:12:17.171Z,33.01
2023-03-24T14:15:30.322Z,33.17
2023-03-24T14:18:32.341Z,33.38
2023-03-24T14:21:34.695Z,33.47
2023-03-24T14:24:38.129Z,33.33
2023-03-24T14:27:45.618Z,33.21
2023-03-24T14:31:18.485Z,31.78
2023-03-24T14:34:25.531Z,32.07
2023-03-24T14:37:29.240Z,33.37
2023-03-24T14:40:39.306Z,33.94
2023-03-24T14:43:44.029Z,33.83
2023-03-24T14:46:51.810Z,33.47
2023-03-24T14:49:56.278Z,33.19
2023-03-24T14:53:01.011Z,33.33
2023-03-24T14:56:04.043Z,33.54
2023-03-24T14:59:16.828Z,33.88
2023-03-24T15:02:42.293Z,34.04
2023-03-24T15:05:44.435Z,34.19
2023-03-24T15:08:53.118Z,33.90
2023-03-24T15:12:00.606Z,33.74
2023-03-24T15:15:03.351Z,33.55
2023-03-24T15:18:05.519Z,33.49
2023-03-24T15:21:22.683Z,33.60
2023-03-24T15:24:33.400Z,33.10
2023-03-24T15:27:35.772Z,33.76
2023-03-24T15:30:38.086Z,33.27
2023-03-24T15:33:44.066Z,33.34
2023-03-24T15:36:50.660Z,33.46
2023-03-24T15:40:01.827Z,33.99
2023-03-24T15:43:19.689Z,34.60
2023-03-24T15:46:30.523Z,34.86
2023-03-24T15:49:34.924Z,35.37
2023-03-24T15:52:39.214Z,36.17
2023-03-24T15:55:44.010Z,36.84
2023-03-24T15:59:06.185Z,37.38
2023-03-24T16:02:39.695Z,37.92
2023-03-24T16:05:48.546Z,38.47
2023-03-24T16:08:50.647Z,38.89
2023-03-24T16:11:53.366Z,39.29
2023-03-24T16:14:55.688Z,39.94
2023-03-24T16:17:57.830Z,40.06
2023-03-24T16:21:01.595Z,40.21
2023-03-24T16:24:03.848Z,40.38
2023-03-24T16:27:06.084Z,40.64
2023-03-24T16:30:20.834Z,40.85
2023-03-24T16:33:23.639Z,41.03
2023-03-24T16:36:29.470Z,41.36
2023-03-24T16:39:31.768Z,41.73
2023-03-24T16:42:33.830Z,41.72
2023-03-24T16:45:36.422Z,42.02
2023-03-24T16:48:38.918Z,42.20
2023-03-24T16:51:41.591Z,42.50
2023-03-24T16:54:43.753Z,42.99
2023-03-24T16:57:46.110Z,42.96
2023-03-24T17:00:49.882Z,43.58
2023-03-24T17:03:57.530Z,43.83
2023-03-24T17:06:59.799Z,43.92
2023-03-24T17:10:02.119Z,44.20
2023-03-24T17:13:04.330Z,44.87
2023-03-24T17:16:09.392Z,45.10
2023-03-24T17:19:14.154Z,45.54
2023-03-24T17:22:19.258Z,45.62
2023-03-24T17:25:23.235Z,45.66
2023-03-24T17:28:25.740Z,45.78
2023-03-24T17:31:28.555Z,46.04
2023-03-24T17:34:30.764Z,46.31
2023-03-24T17:37:33.031Z,46.42
2023-03-24T17:40:37.991Z,46.51
2023-03-24T17:43:41.012Z,46.76
2023-03-24T17:46:43.801Z,47.33
2023-03-24T17:49:46.394Z,47.49
2023-03-24T17:52:49.861Z,47.69
2023-03-24T17:55:57.066Z,47.90
2023-03-24T17:59:00.222Z,48.09
2023-03-24T18:02:05.598Z,48.28
2023-03-24T18:05:09.243Z,48.62
2023-03-24T18:08:12.947Z,48.85
2023-03-24T18:11:16.939Z,48.97
2023-03-24T18:14:20.115Z,48.99
2023-03-24T18:17:24.461Z,49.27
2023-03-24T18:20:28.256Z,49.70
2023-03-24T18:23:33.068Z,49.71
2023-03-24T18:26:36.093Z,49.63
2023-03-24T18:29:39.620Z,49.87
2023-03-24T18:32:43.374Z,49.92
2023-03-24T18:35:56.667Z,50.24
2023-03-24T18:39:06.231Z,50.52
2023-03-24T18:42:10.726Z,50.74
2023-03-24T18:45:18.056Z,50.88
2023-03-24T18:48:21.579Z,51.06
2023-03-24T18:51:25.782Z,51.25
2023-03-24T18:54:36.844Z,51.52
2023-03-24T18:57:41.318Z,51.81
2023-03-24T19:00:49.499Z,52.08
2023-03-24T19:03:53.838Z,52.27
2023-03-24T19:06:57.384Z,52.56
2023-03-24T19:10:00.638Z,52.75
2023-03-24T19:13:04.526Z,52.85
2023-03-24T19:16:09.587Z,52.78
2023-03-24T19:19:12.493Z,52.99
2023-03-24T19:22:22.334Z,53.00
2023-03-24T19:25:25.474Z,53.09
2023-03-24T19:28:31.406Z,53.24
2023-03-24T19:31:35.716Z,53.29
2023-03-24T19:34:39.441Z,53.55
2023-03-24T19:37:44.074Z,53.63
2023-03-24T19:40:47.349Z,53.74
2023-03-24T19:43:50.072Z,53.80
2023-03-24T19:46:53.221Z,54.14
2023-03-24T19:49:57.519Z,54.13
2023-03-24T19:53:01.105Z,54.16
2023-03-24T19:56:05.868Z,54.59
2023-03-24T19:59:09.044Z,54.69
2023-03-24T20:02:16.840Z,54.86
2023-03-24T20:05:21.571Z,55.04
2023-03-24T20:08:32.932Z,55.49
2023-03-24T20:11:36.921Z,55.37
2023-03-24T20:14:41.179Z,56.22
2023-03-24T20:17:44.609Z,56.94
2023-03-24T20:20:47.693Z,57.57
2023-03-24T20:23:52.648Z,58.39
2023-03-24T20:26:56.128Z,58.83
2023-03-24T20:29:58.784Z,59.21
2023-03-24T20:33:02.119Z,59.10
2023-03-24T20:36:05.577Z,59.80
2023-03-24T20:39:08.783Z,60.41
2023-03-24T20:42:12.584Z,60.70
2023-03-24T20:45:15.127Z,60.76
2023-03-24T20:48:18.198Z,61.14
2023-03-24T20:51:21.217Z,61.46
2023-03-24T20:54:27.305Z,61.56
2023-03-24T20:57:34.761Z,61.72
2023-03-24T21:00:46.691Z,62.03
2023-03-24T21:03:51.753Z,62.56
2023-03-24T21:06:54.973Z,62.65
2023-03-24T21:09:57.716Z,62.87
2023-03-24T21:13:00.128Z,63.83
2023-03-24T21:16:08.251Z,63.81
2023-03-24T21:19:11.861Z,63.60
2023-03-24T21:22:15.932Z,63.62
2023-03-24T21:25:18.217Z,63.98
2023-03-24T21:28:20.449Z,63.82
2023-03-24T21:31:26.445Z,64.41
2023-03-24T21:34:28.508Z,64.69
2023-03-24T21:37:30.737Z,64.93
2023-03-24T21:40:33.031Z,64.78
2023-03-24T21:43:35.508Z,64.92
2023-03-24T21:46:37.658Z,65.51
2023-03-24T21:49:39.952Z,65.79
2023-03-24T21:52:47.884Z,65.79
2023-03-24T21:56:04.615Z,65.85
2023-03-24T21:59:07.177Z,65.38
2023-03-24T22:02:14.625Z,64.69
2023-03-24T22:05:19.522Z,64.39
2023-03-24T22:08:27.029Z,64.53
2023-03-24T22:11:29.117Z,64.42
2023-03-24T22:14:31.772Z,65.15
2023-03-24T22:17:35.725Z,65.42
2023-03-24T22:20:38.042Z,65.26
2023-03-24T22:23:42.643Z,64.99
2023-03-24T22:26:44.987Z,65.16
2023-03-24T22:29:47.045Z,65.44
2023-03-24T22:32:49.203Z,65.01
2023-03-24T22:35:57.337Z,65.04
2023-03-24T22:38:59.506Z,65.69
2023-03-24T22:42:01.647Z,66.02
2023-03-24T22:45:03.884Z,66.34
2023-03-24T22:48:06.192Z,65.76
2023-03-24T22:51:09.450Z,65.28
2023-03-24T22:54:11.709Z,65.00
2023-03-24T22:57:13.706Z,64.44
2023-03-24T23:00:19.319Z,64.85
2023-03-24T23:03:21.526Z,64.50
2023-03-24T23:06:23.614Z,64.38
2023-03-24T23:09:26.806Z,64.51
2023-03-24T23:12:29.249Z,64.62
2023-03-24T23:15:32.172Z,64.90
2023-03-24T23:18:34.212Z,65.19
2023-03-24T23:21:36.324Z,65.45
2023-03-24T23:24:39.675Z,65.22
2023-03-24T23:27:42.097Z,65.29
2023-03-24T23:30:44.299Z,65.18
2023-03-24T23:33:46.593Z,64.95
2023-03-24T23:36:50.066Z,65.15
2023-03-24T23:39:52.161Z,64.72
2023-03-24T23:42:54.261Z,64.86
2023-03-24T23:45:57.789Z,64.79
2023-03-24T23:49:00.342Z,65.07
2023-03-24T23:52:02.393Z,65.09
2023-03-24T23:55:04.899Z,65.05
2023-03-24T23:58:07.133Z,64.94
